sensor_id;sensor_type;location;lat;lon;timestamp;temperature;humidity
17128;DHT22;8679;50.842;4.322;2022-08-21T00:01:04;16.80;99.90
17128;DHT22;8679;50.842;4.322;2022-08-21T00:03:31;16.80;99.90
17128;DHT22;8679;50.842;4.322;2022-08-21T00:05:57;16.70;99.90
17128;DHT22;8679;50.842;4.322;2022-08-21T00:08:23;16.80;99.90
17128;DHT22;8679;50.842;4.322;2022-08-21T00:10:49;16.70;99.90
17128;DHT22;8679;50.842;4.322;2022-08-21T00:13:16;16.70;99.90
17128;DHT22;8679;50.842;4.322;2022-08-21T00:15:42;16.70;99.90
17128;DHT22;8679;50.842;4.322;2022-08-21T00:18:09;16.70;99.90
17128;DHT22;8679;50.842;4.322;2022-08-21T00:20:36;16.70;99.90
17128;DHT22;8679;50.842;4.322;2022-08-21T00:23:02;16.60;99.90
17128;DHT22;8679;50.842;4.322;2022-08-21T00:25:28;16.60;99.90
17128;DHT22;8679;50.842;4.322;2022-08-21T00:27:54;16.60;99.90
17128;DHT22;8679;50.842;4.322;2022-08-21T00:30:22;16.50;99.90
17128;DHT22;8679;50.842;4.322;2022-08-21T00:32:48;16.50;99.90
17128;DHT22;8679;50.842;4.322;2022-08-21T00:35:16;16.40;99.90
17128;DHT22;8679;50.842;4.322;2022-08-21T00:37:43;16.40;99.90
17128;DHT22;8679;50.842;4.322;2022-08-21T00:40:15;16.40;99.90
17128;DHT22;8679;50.842;4.322;2022-08-21T00:42:42;16.40;99.90
17128;DHT22;8679;50.842;4.322;2022-08-21T00:45:09;16.40;99.90
17128;DHT22;8679;50.842;4.322;2022-08-21T00:47:35;16.40;99.90
17128;DHT22;8679;50.842;4.322;2022-08-21T00:50:01;16.30;99.90
17128;DHT22;8679;50.842;4.322;2022-08-21T00:52:30;16.30;99.90
17128;DHT22;8679;50.842;4.322;2022-08-21T00:54:57;16.20;99.90
17128;DHT22;8679;50.842;4.322;2022-08-21T00:57:29;16.20;99.90
17128;DHT22;8679;50.842;4.322;2022-08-21T00:59:58;16.20;99.90
17128;DHT22;8679;50.842;4.322;2022-08-21T01:02:25;16.20;99.90
17128;DHT22;8679;50.842;4.322;2022-08-21T01:04:51;16.10;99.90
17128;DHT22;8679;50.842;4.322;2022-08-21T01:07:18;16.10;99.90
17128;DHT22;8679;50.842;4.322;2022-08-21T01:09:46;16.10;99.90
17128;DHT22;8679;50.842;4.322;2022-08-21T01:12:13;16.00;99.90
17128;DHT22;8679;50.842;4.322;2022-08-21T01:14:40;16.00;99.90
17128;DHT22;8679;50.842;4.322;2022-08-21T01:17:08;15.90;99.90
17128;DHT22;8679;50.842;4.322;2022-08-21T01:19:35;15.90;99.90
17128;DHT22;8679;50.842;4.322;2022-08-21T01:22:01;16.00;99.90
17128;DHT22;8679;50.842;4.322;2022-08-21T01:24:26;15.90;99.90
17128;DHT22;8679;50.842;4.322;2022-08-21T01:26:53;15.90;99.90
17128;DHT22;8679;50.842;4.322;2022-08-21T01:31:48;15.90;99.90
17128;DHT22;8679;50.842;4.322;2022-08-21T01:34:14;15.80;99.90
17128;DHT22;8679;50.842;4.322;2022-08-21T01:36:42;15.80;99.90
17128;DHT22;8679;50.842;4.322;2022-08-21T01:39:08;15.80;99.90
17128;DHT22;8679;50.842;4.322;2022-08-21T01:41:34;15.80;99.90
17128;DHT22;8679;50.842;4.322;2022-08-21T01:44:00;15.90;99.90
17128;DHT22;8679;50.842;4.322;2022-08-21T01:46:26;15.80;99.90
17128;DHT22;8679;50.842;4.322;2022-08-21T01:48:52;15.70;99.90
17128;DHT22;8679;50.842;4.322;2022-08-21T01:51:18;15.70;99.90
17128;DHT22;8679;50.842;4.322;2022-08-21T01:53:43;15.60;99.90
17128;DHT22;8679;50.842;4.322;2022-08-21T01:56:12;15.70;99.90
17128;DHT22;8679;50.842;4.322;2022-08-21T01:58:40;15.60;99.90
17128;DHT22;8679;50.842;4.322;2022-08-21T02:01:06;15.60;99.90
17128;DHT22;8679;50.842;4.322;2022-08-21T02:03:31;15.70;99.90
17128;DHT22;8679;50.842;4.322;2022-08-21T02:05:57;15.60;99.90
17128;DHT22;8679;50.842;4.322;2022-08-21T02:08:23;15.60;99.90
17128;DHT22;8679;50.842;4.322;2022-08-21T02:10:50;15.70;99.90
17128;DHT22;8679;50.842;4.322;2022-08-21T02:13:17;15.60;99.90
17128;DHT22;8679;50.842;4.322;2022-08-21T02:15:42;15.50;99.90
17128;DHT22;8679;50.842;4.322;2022-08-21T02:18:08;15.50;99.90
17128;DHT22;8679;50.842;4.322;2022-08-21T02:20:42;15.40;99.90
17128;DHT22;8679;50.842;4.322;2022-08-21T02:23:10;15.40;99.90
17128;DHT22;8679;50.842;4.322;2022-08-21T02:25:36;15.30;99.90
17128;DHT22;8679;50.842;4.322;2022-08-21T02:28:04;15.30;99.90
17128;DHT22;8679;50.842;4.322;2022-08-21T02:30:33;15.20;99.90
17128;DHT22;8679;50.842;4.322;2022-08-21T02:33:00;15.20;99.90
17128;DHT22;8679;50.842;4.322;2022-08-21T02:35:26;15.20;99.90
17128;DHT22;8679;50.842;4.322;2022-08-21T02:37:58;15.20;99.90
17128;DHT22;8679;50.842;4.322;2022-08-21T02:40:27;15.20;99.90
17128;DHT22;8679;50.842;4.322;2022-08-21T02:42:53;15.20;99.90
17128;DHT22;8679;50.842;4.322;2022-08-21T02:45:19;15.20;99.90
17128;DHT22;8679;50.842;4.322;2022-08-21T02:47:53;15.20;99.90
17128;DHT22;8679;50.842;4.322;2022-08-21T02:50:26;15.20;99.90
17128;DHT22;8679;50.842;4.322;2022-08-21T02:52:52;15.20;99.90
17128;DHT22;8679;50.842;4.322;2022-08-21T02:55:20;15.20;99.90
17128;DHT22;8679;50.842;4.322;2022-08-21T02:57:46;15.20;99.90
17128;DHT22;8679;50.842;4.322;2022-08-21T03:00:13;15.20;99.90
17128;DHT22;8679;50.842;4.322;2022-08-21T03:02:39;15.20;99.90
17128;DHT22;8679;50.842;4.322;2022-08-21T03:05:08;15.20;99.90
17128;DHT22;8679;50.842;4.322;2022-08-21T03:07:36;15.10;99.90
17128;DHT22;8679;50.842;4.322;2022-08-21T03:10:03;15.10;99.90
17128;DHT22;8679;50.842;4.322;2022-08-21T03:12:29;15.10;99.90
17128;DHT22;8679;50.842;4.322;2022-08-21T03:14:55;15.00;99.90
17128;DHT22;8679;50.842;4.322;2022-08-21T03:17:20;15.10;99.90
17128;DHT22;8679;50.842;4.322;2022-08-21T03:19:46;15.10;99.90
17128;DHT22;8679;50.842;4.322;2022-08-21T03:22:12;15.00;99.90
17128;DHT22;8679;50.842;4.322;2022-08-21T03:24:37;15.00;99.90
17128;DHT22;8679;50.842;4.322;2022-08-21T03:27:03;15.00;99.90
17128;DHT22;8679;50.842;4.322;2022-08-21T03:29:29;15.00;99.90
17128;DHT22;8679;50.842;4.322;2022-08-21T03:31:54;14.90;99.90
17128;DHT22;8679;50.842;4.322;2022-08-21T03:34:20;14.90;99.90
17128;DHT22;8679;50.842;4.322;2022-08-21T03:36:47;14.90;99.90
17128;DHT22;8679;50.842;4.322;2022-08-21T03:39:14;14.90;99.90
17128;DHT22;8679;50.842;4.322;2022-08-21T03:41:40;14.90;99.90
17128;DHT22;8679;50.842;4.322;2022-08-21T03:44:06;14.80;99.90
17128;DHT22;8679;50.842;4.322;2022-08-21T03:46:32;14.80;99.90
17128;DHT22;8679;50.842;4.322;2022-08-21T03:48:58;14.80;99.90
17128;DHT22;8679;50.842;4.322;2022-08-21T03:51:24;14.80;99.90
17128;DHT22;8679;50.842;4.322;2022-08-21T03:53:49;14.80;99.90
17128;DHT22;8679;50.842;4.322;2022-08-21T03:56:15;14.80;99.90
17128;DHT22;8679;50.842;4.322;2022-08-21T03:58:41;14.80;99.90
17128;DHT22;8679;50.842;4.322;2022-08-21T04:01:09;14.70;99.90
17128;DHT22;8679;50.842;4.322;2022-08-21T04:03:36;14.70;99.90
17128;DHT22;8679;50.842;4.322;2022-08-21T04:06:03;14.70;99.90
17128;DHT22;8679;50.842;4.322;2022-08-21T04:08:29;14.70;99.90
17128;DHT22;8679;50.842;4.322;2022-08-21T04:10:57;14.60;99.90
17128;DHT22;8679;50.842;4.322;2022-08-21T04:13:24;14.70;99.90
17128;DHT22;8679;50.842;4.322;2022-08-21T04:15:49;14.60;99.90
17128;DHT22;8679;50.842;4.322;2022-08-21T04:18:16;14.70;99.90
17128;DHT22;8679;50.842;4.322;2022-08-21T04:20:43;14.70;99.90
17128;DHT22;8679;50.842;4.322;2022-08-21T04:23:10;14.60;99.90
17128;DHT22;8679;50.842;4.322;2022-08-21T04:25:36;14.60;99.90
17128;DHT22;8679;50.842;4.322;2022-08-21T04:28:02;14.60;99.90
17128;DHT22;8679;50.842;4.322;2022-08-21T04:30:28;14.60;99.90
17128;DHT22;8679;50.842;4.322;2022-08-21T04:32:54;14.50;99.90
17128;DHT22;8679;50.842;4.322;2022-08-21T04:35:22;14.50;99.90
17128;DHT22;8679;50.842;4.322;2022-08-21T04:37:49;14.50;99.90
17128;DHT22;8679;50.842;4.322;2022-08-21T04:40:17;14.50;99.90
17128;DHT22;8679;50.842;4.322;2022-08-21T04:42:55;14.50;99.90
17128;DHT22;8679;50.842;4.322;2022-08-21T04:47:57;14.40;99.90
17128;DHT22;8679;50.842;4.322;2022-08-21T04:50:28;14.40;99.90
17128;DHT22;8679;50.842;4.322;2022-08-21T04:52:55;14.40;99.90
17128;DHT22;8679;50.842;4.322;2022-08-21T04:55:21;14.40;99.90
17128;DHT22;8679;50.842;4.322;2022-08-21T04:57:48;14.40;99.90
17128;DHT22;8679;50.842;4.322;2022-08-21T05:00:19;14.40;99.90
17128;DHT22;8679;50.842;4.322;2022-08-21T05:02:45;14.40;99.90
17128;DHT22;8679;50.842;4.322;2022-08-21T05:05:13;14.40;99.90
17128;DHT22;8679;50.842;4.322;2022-08-21T05:07:39;14.40;99.90
17128;DHT22;8679;50.842;4.322;2022-08-21T05:10:06;14.40;99.90
17128;DHT22;8679;50.842;4.322;2022-08-21T05:12:34;14.40;99.90
17128;DHT22;8679;50.842;4.322;2022-08-21T05:14:59;14.50;99.90
17128;DHT22;8679;50.842;4.322;2022-08-21T05:17:25;14.50;99.90
17128;DHT22;8679;50.842;4.322;2022-08-21T05:19:51;14.50;99.90
17128;DHT22;8679;50.842;4.322;2022-08-21T05:22:23;14.50;99.90
17128;DHT22;8679;50.842;4.322;2022-08-21T05:24:50;14.50;99.90
17128;DHT22;8679;50.842;4.322;2022-08-21T05:27:16;14.50;99.90
17128;DHT22;8679;50.842;4.322;2022-08-21T05:29:42;14.60;99.90
17128;DHT22;8679;50.842;4.322;2022-08-21T05:32:10;14.60;99.90
17128;DHT22;8679;50.842;4.322;2022-08-21T05:34:36;14.60;99.90
17128;DHT22;8679;50.842;4.322;2022-08-21T05:37:01;14.60;99.90
17128;DHT22;8679;50.842;4.322;2022-08-21T05:39:28;14.70;99.90
17128;DHT22;8679;50.842;4.322;2022-08-21T05:41:53;14.70;99.90
17128;DHT22;8679;50.842;4.322;2022-08-21T05:44:19;14.80;99.90
17128;DHT22;8679;50.842;4.322;2022-08-21T05:46:45;14.70;99.90
17128;DHT22;8679;50.842;4.322;2022-08-21T05:49:11;14.80;99.90
17128;DHT22;8679;50.842;4.322;2022-08-21T05:51:39;14.80;99.90
17128;DHT22;8679;50.842;4.322;2022-08-21T05:54:05;14.80;99.90
17128;DHT22;8679;50.842;4.322;2022-08-21T05:56:31;14.90;99.90
17128;DHT22;8679;50.842;4.322;2022-08-21T05:58:57;15.00;99.90
17128;DHT22;8679;50.842;4.322;2022-08-21T06:01:23;15.00;99.90
17128;DHT22;8679;50.842;4.322;2022-08-21T06:03:49;15.00;99.90
17128;DHT22;8679;50.842;4.322;2022-08-21T06:06:15;15.00;99.90
17128;DHT22;8679;50.842;4.322;2022-08-21T06:08:41;15.00;99.90
17128;DHT22;8679;50.842;4.322;2022-08-21T06:11:07;15.00;99.90
17128;DHT22;8679;50.842;4.322;2022-08-21T06:13:34;15.10;99.90
17128;DHT22;8679;50.842;4.322;2022-08-21T06:16:08;15.20;99.90
17128;DHT22;8679;50.842;4.322;2022-08-21T06:18:35;15.20;99.90
17128;DHT22;8679;50.842;4.322;2022-08-21T06:21:02;15.40;99.90
17128;DHT22;8679;50.842;4.322;2022-08-21T06:23:28;15.40;99.90
17128;DHT22;8679;50.842;4.322;2022-08-21T06:25:53;15.50;99.90
17128;DHT22;8679;50.842;4.322;2022-08-21T06:28:19;15.50;99.90
17128;DHT22;8679;50.842;4.322;2022-08-21T06:30:45;15.60;99.90
17128;DHT22;8679;50.842;4.322;2022-08-21T06:33:11;15.70;99.90
17128;DHT22;8679;50.842;4.322;2022-08-21T06:35:36;15.80;99.90
17128;DHT22;8679;50.842;4.322;2022-08-21T06:38:02;15.80;99.90
17128;DHT22;8679;50.842;4.322;2022-08-21T06:40:29;15.90;99.90
17128;DHT22;8679;50.842;4.322;2022-08-21T06:42:55;15.90;99.90
17128;DHT22;8679;50.842;4.322;2022-08-21T06:45:21;15.90;99.90
17128;DHT22;8679;50.842;4.322;2022-08-21T06:47:47;16.00;99.90
17128;DHT22;8679;50.842;4.322;2022-08-21T06:50:12;16.10;99.90
17128;DHT22;8679;50.842;4.322;2022-08-21T06:52:38;16.20;99.90
17128;DHT22;8679;50.842;4.322;2022-08-21T06:55:07;16.30;99.90
17128;DHT22;8679;50.842;4.322;2022-08-21T06:57:33;16.40;99.90
17128;DHT22;8679;50.842;4.322;2022-08-21T06:59:59;16.50;99.90
17128;DHT22;8679;50.842;4.322;2022-08-21T07:02:25;16.60;99.90
17128;DHT22;8679;50.842;4.322;2022-08-21T07:04:50;16.70;99.90
17128;DHT22;8679;50.842;4.322;2022-08-21T07:07:17;16.80;99.90
17128;DHT22;8679;50.842;4.322;2022-08-21T07:09:43;16.90;99.90
17128;DHT22;8679;50.842;4.322;2022-08-21T07:12:09;16.90;99.90
17128;DHT22;8679;50.842;4.322;2022-08-21T07:14:35;17.00;99.90
17128;DHT22;8679;50.842;4.322;2022-08-21T07:17:02;17.20;99.90
17128;DHT22;8679;50.842;4.322;2022-08-21T07:19:28;17.20;99.90
17128;DHT22;8679;50.842;4.322;2022-08-21T07:21:58;17.30;99.90
17128;DHT22;8679;50.842;4.322;2022-08-21T07:24:24;17.40;99.90
17128;DHT22;8679;50.842;4.322;2022-08-21T07:26:51;17.50;99.90
17128;DHT22;8679;50.842;4.322;2022-08-21T07:29:16;17.50;99.90
17128;DHT22;8679;50.842;4.322;2022-08-21T07:31:42;17.50;99.90
17128;DHT22;8679;50.842;4.322;2022-08-21T07:34:08;17.60;99.90
17128;DHT22;8679;50.842;4.322;2022-08-21T07:36:34;17.60;99.90
17128;DHT22;8679;50.842;4.322;2022-08-21T07:39:00;17.80;99.90
17128;DHT22;8679;50.842;4.322;2022-08-21T07:41:28;17.90;99.90
17128;DHT22;8679;50.842;4.322;2022-08-21T07:43:58;17.90;99.90
17128;DHT22;8679;50.842;4.322;2022-08-21T07:46:25;18.10;99.90
17128;DHT22;8679;50.842;4.322;2022-08-21T07:48:51;18.20;99.90
17128;DHT22;8679;50.842;4.322;2022-08-21T07:51:18;18.30;99.90
17128;DHT22;8679;50.842;4.322;2022-08-21T07:53:52;18.40;99.90
17128;DHT22;8679;50.842;4.322;2022-08-21T07:56:18;18.50;99.90
17128;DHT22;8679;50.842;4.322;2022-08-21T07:58:44;18.60;99.90
17128;DHT22;8679;50.842;4.322;2022-08-21T08:01:10;18.60;99.90
17128;DHT22;8679;50.842;4.322;2022-08-21T08:03:36;18.70;99.90
17128;DHT22;8679;50.842;4.322;2022-08-21T08:06:02;18.80;99.90
17128;DHT22;8679;50.842;4.322;2022-08-21T08:08:30;18.80;99.90
17128;DHT22;8679;50.842;4.322;2022-08-21T08:10:58;18.80;99.90
17128;DHT22;8679;50.842;4.322;2022-08-21T08:13:24;18.90;99.90
17128;DHT22;8679;50.842;4.322;2022-08-21T08:15:50;18.90;99.90
17128;DHT22;8679;50.842;4.322;2022-08-21T08:18:16;19.00;99.90
17128;DHT22;8679;50.842;4.322;2022-08-21T08:20:42;18.90;99.90
17128;DHT22;8679;50.842;4.322;2022-08-21T08:23:11;18.90;99.90
17128;DHT22;8679;50.842;4.322;2022-08-21T08:25:36;18.90;99.90
17128;DHT22;8679;50.842;4.322;2022-08-21T08:28:04;18.90;99.90
17128;DHT22;8679;50.842;4.322;2022-08-21T08:30:30;19.00;99.90
17128;DHT22;8679;50.842;4.322;2022-08-21T08:32:55;19.10;99.90
17128;DHT22;8679;50.842;4.322;2022-08-21T08:35:22;19.20;99.90
17128;DHT22;8679;50.842;4.322;2022-08-21T08:37:48;19.40;99.90
17128;DHT22;8679;50.842;4.322;2022-08-21T08:40:44;19.60;99.90
17128;DHT22;8679;50.842;4.322;2022-08-21T08:43:12;19.70;99.90
17128;DHT22;8679;50.842;4.322;2022-08-21T08:45:42;19.80;99.90
17128;DHT22;8679;50.842;4.322;2022-08-21T08:48:13;19.80;99.90
17128;DHT22;8679;50.842;4.322;2022-08-21T08:50:54;19.80;99.90
17128;DHT22;8679;50.842;4.322;2022-08-21T08:56:10;19.90;99.90
17128;DHT22;8679;50.842;4.322;2022-08-21T08:58:41;19.90;99.90
17128;DHT22;8679;50.842;4.322;2022-08-21T09:01:16;20.00;99.90
17128;DHT22;8679;50.842;4.322;2022-08-21T09:03:43;19.90;99.90
17128;DHT22;8679;50.842;4.322;2022-08-21T09:06:37;20.00;99.90
17128;DHT22;8679;50.842;4.322;2022-08-21T09:17:40;20.30;99.90
17128;DHT22;8679;50.842;4.322;2022-08-21T09:28:34;20.80;99.90
17128;DHT22;8679;50.842;4.322;2022-08-21T09:31:06;20.80;99.90
17128;DHT22;8679;50.842;4.322;2022-08-21T09:33:32;20.90;99.90
17128;DHT22;8679;50.842;4.322;2022-08-21T09:35:58;21.00;99.90
17128;DHT22;8679;50.842;4.322;2022-08-21T09:38:36;21.20;99.90
17128;DHT22;8679;50.842;4.322;2022-08-21T09:41:08;21.20;99.90
17128;DHT22;8679;50.842;4.322;2022-08-21T09:43:35;21.40;99.90
17128;DHT22;8679;50.842;4.322;2022-08-21T09:46:19;21.60;99.90
17128;DHT22;8679;50.842;4.322;2022-08-21T09:48:48;21.60;99.90
17128;DHT22;8679;50.842;4.322;2022-08-21T09:51:20;21.50;99.90
17128;DHT22;8679;50.842;4.322;2022-08-21T09:56:37;21.50;99.90
17128;DHT22;8679;50.842;4.322;2022-08-21T09:59:29;21.40;99.90
17128;DHT22;8679;50.842;4.322;2022-08-21T10:01:59;21.30;99.90
17128;DHT22;8679;50.842;4.322;2022-08-21T10:04:32;21.20;99.90
17128;DHT22;8679;50.842;4.322;2022-08-21T10:07:12;21.20;99.90
17128;DHT22;8679;50.842;4.322;2022-08-21T10:09:40;21.40;99.90
17128;DHT22;8679;50.842;4.322;2022-08-21T10:12:27;21.40;99.90
17128;DHT22;8679;50.842;4.322;2022-08-21T10:17:37;21.50;99.90
17128;DHT22;8679;50.842;4.322;2022-08-21T10:20:15;21.60;99.90
17128;DHT22;8679;50.842;4.322;2022-08-21T10:28:18;22.00;99.90
17128;DHT22;8679;50.842;4.322;2022-08-21T10:36:30;22.00;99.90
17128;DHT22;8679;50.842;4.322;2022-08-21T10:42:07;22.20;99.90
17128;DHT22;8679;50.842;4.322;2022-08-21T10:47:35;22.70;99.90
17128;DHT22;8679;50.842;4.322;2022-08-21T10:55:40;22.80;99.90
17128;DHT22;8679;50.842;4.322;2022-08-21T10:58:14;22.80;99.90
17128;DHT22;8679;50.842;4.322;2022-08-21T11:03:32;22.90;99.90
17128;DHT22;8679;50.842;4.322;2022-08-21T11:06:05;23.00;99.90
17128;DHT22;8679;50.842;4.322;2022-08-21T11:08:40;22.90;99.90
17128;DHT22;8679;50.842;4.322;2022-08-21T11:11:17;22.80;99.90
17128;DHT22;8679;50.842;4.322;2022-08-21T11:13:48;22.70;99.90
17128;DHT22;8679;50.842;4.322;2022-08-21T11:19:02;22.50;99.90
17128;DHT22;8679;50.842;4.322;2022-08-21T11:21:43;22.70;99.90
17128;DHT22;8679;50.842;4.322;2022-08-21T11:24:24;22.90;99.90
17128;DHT22;8679;50.842;4.322;2022-08-21T11:27:21;22.90;99.90
17128;DHT22;8679;50.842;4.322;2022-08-21T11:29:52;22.70;99.90
17128;DHT22;8679;50.842;4.322;2022-08-21T11:40:40;23.30;99.90
17128;DHT22;8679;50.842;4.322;2022-08-21T11:45:52;23.30;99.90
17128;DHT22;8679;50.842;4.322;2022-08-21T11:51:41;23.50;99.90
17128;DHT22;8679;50.842;4.322;2022-08-21T11:54:38;23.60;99.90
17128;DHT22;8679;50.842;4.322;2022-08-21T11:57:34;23.70;99.90
17128;DHT22;8679;50.842;4.322;2022-08-21T12:02:42;24.20;99.90
17128;DHT22;8679;50.842;4.322;2022-08-21T12:05:22;24.80;99.90
17128;DHT22;8679;50.842;4.322;2022-08-21T12:07:48;25.00;99.90
17128;DHT22;8679;50.842;4.322;2022-08-21T12:10:36;24.80;99.90
17128;DHT22;8679;50.842;4.322;2022-08-21T12:13:07;24.60;99.90
17128;DHT22;8679;50.842;4.322;2022-08-21T12:15:33;24.80;99.90
17128;DHT22;8679;50.842;4.322;2022-08-21T12:18:01;24.60;99.90
17128;DHT22;8679;50.842;4.322;2022-08-21T12:20:34;24.80;99.90
17128;DHT22;8679;50.842;4.322;2022-08-21T12:26:10;25.50;99.90
17128;DHT22;8679;50.842;4.322;2022-08-21T12:28:37;25.80;99.90
17128;DHT22;8679;50.842;4.322;2022-08-21T12:31:03;26.30;99.90
17128;DHT22;8679;50.842;4.322;2022-08-21T12:36:12;26.00;99.90
17128;DHT22;8679;50.842;4.322;2022-08-21T12:38:55;25.60;99.90
17128;DHT22;8679;50.842;4.322;2022-08-21T12:43:57;24.80;99.90
17128;DHT22;8679;50.842;4.322;2022-08-21T12:46:42;25.00;99.90
17128;DHT22;8679;50.842;4.322;2022-08-21T12:52:27;24.90;99.90
17128;DHT22;8679;50.842;4.322;2022-08-21T12:54:54;24.60;99.90
17128;DHT22;8679;50.842;4.322;2022-08-21T12:57:24;24.60;99.90
17128;DHT22;8679;50.842;4.322;2022-08-21T12:59:55;24.50;99.90
17128;DHT22;8679;50.842;4.322;2022-08-21T13:02:25;24.40;99.90
17128;DHT22;8679;50.842;4.322;2022-08-21T13:04:52;24.50;99.90
17128;DHT22;8679;50.842;4.322;2022-08-21T13:07:29;24.60;99.90
17128;DHT22;8679;50.842;4.322;2022-08-21T13:10:04;24.50;99.90
17128;DHT22;8679;50.842;4.322;2022-08-21T13:12:31;24.40;99.90
17128;DHT22;8679;50.842;4.322;2022-08-21T13:15:02;24.60;99.90
17128;DHT22;8679;50.842;4.322;2022-08-21T13:17:32;24.60;99.90
17128;DHT22;8679;50.842;4.322;2022-08-21T13:20:10;24.70;99.90
17128;DHT22;8679;50.842;4.322;2022-08-21T13:22:44;24.70;99.90
17128;DHT22;8679;50.842;4.322;2022-08-21T13:25:16;24.80;99.90
17128;DHT22;8679;50.842;4.322;2022-08-21T13:27:44;24.80;99.90
17128;DHT22;8679;50.842;4.322;2022-08-21T13:30:20;24.80;99.90
17128;DHT22;8679;50.842;4.322;2022-08-21T13:32:54;24.40;99.90
17128;DHT22;8679;50.842;4.322;2022-08-21T13:35:28;24.60;99.90
17128;DHT22;8679;50.842;4.322;2022-08-21T13:37:56;24.60;99.90
17128;DHT22;8679;50.842;4.322;2022-08-21T13:40:39;24.90;99.90
17128;DHT22;8679;50.842;4.322;2022-08-21T13:43:12;25.20;99.90
17128;DHT22;8679;50.842;4.322;2022-08-21T13:45:38;25.30;99.90
17128;DHT22;8679;50.842;4.322;2022-08-21T13:48:08;25.30;99.90
17128;DHT22;8679;50.842;4.322;2022-08-21T13:50:35;25.50;99.90
17128;DHT22;8679;50.842;4.322;2022-08-21T13:53:05;25.50;99.90
17128;DHT22;8679;50.842;4.322;2022-08-21T13:55:41;25.20;99.90
17128;DHT22;8679;50.842;4.322;2022-08-21T13:58:08;25.20;99.90
17128;DHT22;8679;50.842;4.322;2022-08-21T14:00:44;25.40;99.90
17128;DHT22;8679;50.842;4.322;2022-08-21T14:03:11;25.40;99.90
17128;DHT22;8679;50.842;4.322;2022-08-21T14:05:45;25.40;99.90
17128;DHT22;8679;50.842;4.322;2022-08-21T14:10:49;25.20;99.90
17128;DHT22;8679;50.842;4.322;2022-08-21T14:16:41;25.10;99.90
17128;DHT22;8679;50.842;4.322;2022-08-21T14:19:34;24.80;99.90
17128;DHT22;8679;50.842;4.322;2022-08-21T14:22:00;24.60;99.90
17128;DHT22;8679;50.842;4.322;2022-08-21T14:24:29;24.40;99.90
17128;DHT22;8679;50.842;4.322;2022-08-21T14:27:04;24.30;99.90
17128;DHT22;8679;50.842;4.322;2022-08-21T14:29:40;24.30;99.90
17128;DHT22;8679;50.842;4.322;2022-08-21T14:32:18;24.40;99.90
17128;DHT22;8679;50.842;4.322;2022-08-21T14:34:44;24.70;99.90
17128;DHT22;8679;50.842;4.322;2022-08-21T14:37:10;25.40;99.90
17128;DHT22;8679;50.842;4.322;2022-08-21T14:39:36;26.00;99.90
17128;DHT22;8679;50.842;4.322;2022-08-21T14:42:02;26.60;99.90
17128;DHT22;8679;50.842;4.322;2022-08-21T14:44:27;26.80;99.90
17128;DHT22;8679;50.842;4.322;2022-08-21T14:46:53;26.90;99.90
17128;DHT22;8679;50.842;4.322;2022-08-21T14:49:20;26.90;99.90
17128;DHT22;8679;50.842;4.322;2022-08-21T14:51:46;26.80;99.90
17128;DHT22;8679;50.842;4.322;2022-08-21T14:54:11;26.60;99.90
17128;DHT22;8679;50.842;4.322;2022-08-21T14:56:37;26.60;99.90
17128;DHT22;8679;50.842;4.322;2022-08-21T14:59:05;26.10;99.90
17128;DHT22;8679;50.842;4.322;2022-08-21T15:01:33;25.60;99.90
17128;DHT22;8679;50.842;4.322;2022-08-21T15:03:59;25.30;99.90
17128;DHT22;8679;50.842;4.322;2022-08-21T15:06:25;25.00;99.90
17128;DHT22;8679;50.842;4.322;2022-08-21T15:08:50;24.80;99.90
17128;DHT22;8679;50.842;4.322;2022-08-21T15:11:19;24.50;99.90
17128;DHT22;8679;50.842;4.322;2022-08-21T15:13:46;24.50;99.90
17128;DHT22;8679;50.842;4.322;2022-08-21T15:16:15;24.30;99.90
17128;DHT22;8679;50.842;4.322;2022-08-21T15:18:41;24.30;99.90
17128;DHT22;8679;50.842;4.322;2022-08-21T15:21:07;24.20;99.90
17128;DHT22;8679;50.842;4.322;2022-08-21T15:23:33;24.20;99.90
17128;DHT22;8679;50.842;4.322;2022-08-21T15:26:00;24.20;99.90
17128;DHT22;8679;50.842;4.322;2022-08-21T15:28:26;24.40;99.90
17128;DHT22;8679;50.842;4.322;2022-08-21T15:30:52;24.50;99.90
17128;DHT22;8679;50.842;4.322;2022-08-21T15:33:18;24.60;99.90
17128;DHT22;8679;50.842;4.322;2022-08-21T15:35:44;24.50;99.90
17128;DHT22;8679;50.842;4.322;2022-08-21T15:38:12;24.20;99.90
17128;DHT22;8679;50.842;4.322;2022-08-21T15:40:39;24.20;99.90
17128;DHT22;8679;50.842;4.322;2022-08-21T15:43:06;24.10;99.90
17128;DHT22;8679;50.842;4.322;2022-08-21T15:45:33;24.10;99.90
17128;DHT22;8679;50.842;4.322;2022-08-21T15:47:59;24.10;99.90
17128;DHT22;8679;50.842;4.322;2022-08-21T15:50:25;23.90;99.90
17128;DHT22;8679;50.842;4.322;2022-08-21T15:52:52;23.90;99.90
17128;DHT22;8679;50.842;4.322;2022-08-21T15:55:18;23.90;99.90
17128;DHT22;8679;50.842;4.322;2022-08-21T15:57:46;23.90;99.90
17128;DHT22;8679;50.842;4.322;2022-08-21T16:00:19;24.00;99.90
17128;DHT22;8679;50.842;4.322;2022-08-21T16:02:50;24.10;99.90
17128;DHT22;8679;50.842;4.322;2022-08-21T16:05:17;24.10;99.90
17128;DHT22;8679;50.842;4.322;2022-08-21T16:07:45;24.20;99.90
17128;DHT22;8679;50.842;4.322;2022-08-21T16:10:12;24.30;99.90
17128;DHT22;8679;50.842;4.322;2022-08-21T16:12:42;24.30;99.90
17128;DHT22;8679;50.842;4.322;2022-08-21T16:15:10;24.40;99.90
17128;DHT22;8679;50.842;4.322;2022-08-21T16:17:39;24.40;99.90
17128;DHT22;8679;50.842;4.322;2022-08-21T16:20:11;24.40;99.90
17128;DHT22;8679;50.842;4.322;2022-08-21T16:22:37;24.30;99.90
17128;DHT22;8679;50.842;4.322;2022-08-21T16:25:04;24.30;99.90
17128;DHT22;8679;50.842;4.322;2022-08-21T16:27:30;24.50;99.90
17128;DHT22;8679;50.842;4.322;2022-08-21T16:29:56;24.50;99.90
17128;DHT22;8679;50.842;4.322;2022-08-21T16:32:22;24.60;99.90
17128;DHT22;8679;50.842;4.322;2022-08-21T16:34:48;24.60;99.90
17128;DHT22;8679;50.842;4.322;2022-08-21T16:37:15;24.70;99.90
17128;DHT22;8679;50.842;4.322;2022-08-21T16:39:41;24.70;99.90
17128;DHT22;8679;50.842;4.322;2022-08-21T16:42:11;24.80;99.90
17128;DHT22;8679;50.842;4.322;2022-08-21T16:44:38;24.80;99.90
17128;DHT22;8679;50.842;4.322;2022-08-21T16:47:04;24.90;99.90
17128;DHT22;8679;50.842;4.322;2022-08-21T16:49:29;24.90;99.90
17128;DHT22;8679;50.842;4.322;2022-08-21T16:51:56;24.70;99.90
17128;DHT22;8679;50.842;4.322;2022-08-21T16:54:22;24.50;99.90
17128;DHT22;8679;50.842;4.322;2022-08-21T16:56:48;24.40;99.90
17128;DHT22;8679;50.842;4.322;2022-08-21T16:59:15;24.30;99.90
17128;DHT22;8679;50.842;4.322;2022-08-21T17:01:41;24.10;99.90
17128;DHT22;8679;50.842;4.322;2022-08-21T17:04:07;23.90;99.90
17128;DHT22;8679;50.842;4.322;2022-08-21T17:06:33;23.80;99.90
17128;DHT22;8679;50.842;4.322;2022-08-21T17:08:59;23.80;99.90
17128;DHT22;8679;50.842;4.322;2022-08-21T17:11:36;23.60;99.90
17128;DHT22;8679;50.842;4.322;2022-08-21T17:14:22;23.50;99.90
17128;DHT22;8679;50.842;4.322;2022-08-21T17:16:51;23.50;99.90
17128;DHT22;8679;50.842;4.322;2022-08-21T17:19:18;23.50;99.90
17128;DHT22;8679;50.842;4.322;2022-08-21T17:21:44;23.50;99.90
17128;DHT22;8679;50.842;4.322;2022-08-21T17:24:11;23.50;99.90
17128;DHT22;8679;50.842;4.322;2022-08-21T17:26:41;23.50;99.90